HOURLY OBS INDEX

084

East Gippsland

COMBIENBAR AWS

Site: 084143
Alt: 640.0m
64km NE of ORBOST


  Time     Wind        Temp  DP   Baro     Rain since   Rain past  Vis(m), Cloud(base in m), Weather
  local        km/h                         9am  last   hr   10m    
Thu 06:00   SW  4/  9   8.6  5.0  1025.0    0.2   0.0   0.0   0.0   ----- 
Thu 06:30  SSW  6/ 19   8.5  4.7  1025.2    0.2   0.0   0.0   0.0   ----- 
Thu 07:00  SSW  4/  9   8.4  4.6  1025.5    0.2   0.0   0.0   0.0   ----- 
Thu 07:30   SW  4/  9   8.5  4.7  1025.7    0.2   0.0   0.0   0.0   ----- 
Thu 08:00  SSW  4/  7   8.7  4.7  1026.0    0.2   0.0   0.0   0.0   ----- 
Thu 08:30  SSW  4/  7   8.9  4.7  1026.3    0.2   0.0   0.0   0.0   ----- 
Thu 09:00   SW  7/ 15   9.1  4.7  1026.3    0.2   0.0   0.0   0.0   ----- 
Thu 09:30  SSW  4/ 11   9.2  4.6  1026.5    0.0   0.0   0.0   0.0   ----- 
Thu 10:00  SSW  2/  6   9.4  5.4  1026.4    0.0   0.0   0.0   0.0   ----- 
Thu 10:30   SW  6/ 13   9.5  4.3  1026.7    0.0   0.0   0.0   0.0   ----- 
Thu 11:00  SSW  7/ 20   9.6  3.6  1026.5    0.0   0.0   0.0   0.0   ----- 

GABO ISLAND LIGHTHOUSE

Site: 084016
Alt: 15.2m
14km E of MALLACOOTA


  Time     Wind        Temp  DP   Baro     Rain since   Rain past  Vis(m), Cloud(base in m), Weather
  local        km/h                         9am  last   hr   10m    
Thu 06:00    W 39/ 52  14.2  7.7  1023.5    0.0   0.0   0.0   0.0   ----- 
Thu 06:30    W 37/ 50  14.2  7.2  1023.7    0.0   0.0   0.0   0.0   ----- 
Thu 07:00    W 37/ 46  14.2  7.2  1024.1    0.0   0.0   0.0   0.0   ----- 
Thu 07:30    W 35/ 45  14.4  6.7  1024.3    0.0   0.0   0.0   0.0   ----- 
Thu 08:00  WSW 35/ 43  14.5  7.1  1024.6    0.0   0.0   0.0   0.0   ----- 
Thu 08:30    W 33/ 41  14.5  6.9  1024.8    0.0   0.0   0.0   0.0   ----- 
Thu 09:00    W 33/ 41  15.0  7.2  1024.9    0.0   0.0   0.0   0.0   ----- 
Thu 09:30  WSW 33/ 43  14.9  6.6  1024.8    0.0   0.0   0.0   0.0   ----- 
Thu 10:00  WSW 35/ 43  15.5  7.1  1025.0    0.0   0.0   0.0   0.0   ----- 
Thu 10:30  WSW 41/ 54  15.2  6.5  1025.0    0.0   0.0   0.0   0.0   ----- 
Thu 11:00    W 33/ 43  15.8  7.0  1024.8    0.0   0.0   0.0   0.0   ----- 

GELANTIPY

Site: 084142
Alt: 755.0m
56km NNW of ORBOST


  Time     Wind        Temp  DP   Baro     Rain since   Rain past  Vis(m), Cloud(base in m), Weather
  local        km/h                         9am  last   hr   10m    
Thu 06:00   SW 11/ 17   7.7----  1025.2    0.0   0.0   0.0   0.0   ----- 
Thu 06:30   SW 13/ 24   7.7----  1025.4    0.0   0.0   0.0   0.0   ----- 
Thu 07:00   SW 17/ 24   7.9----  1025.7    0.0   0.0   0.0   0.0   ----- 
Thu 07:30  SSW  7/ 11   7.8----  1025.8    0.0   0.0   0.0   0.0   ----- 
Thu 08:00  SSW  9/ 13   7.9----  1026.0    0.0   0.0   0.0   0.0   ----- 
Thu 08:30  SSW 11/ 20   7.8----  1026.2    0.0   0.0   0.0   0.0   ----- 
Thu 09:00   SW 20/ 30   7.9----  1026.3    0.0   0.0   0.0   0.0   ----- 
Thu 09:30   SW 15/ 24   7.9----  1026.5    0.0   0.0   0.0   0.0   ----- 
Thu 10:00   SW 20/ 30   8.2----  1026.5    0.0   0.0   0.0   0.0   ----- 
Thu 10:30   SW 17/ 32   8.2----  1026.6    0.0   0.0   0.0   0.0   ----- 
Thu 11:00  WSW 22/ 30   8.6----  1026.5    0.0   0.0   0.0   0.0   ----- 

MALLACOOTA

Site: 084084
Alt: 22.0m
5km SSW of MALLACOOTA


  Time     Wind        Temp  DP   Baro     Rain since   Rain past  Vis(m), Cloud(base in m), Weather
  local        km/h                         9am  last   hr   10m    
Thu 06:00    W 13/ 26  13.7  6.6  1023.8    0.0   0.0   0.0   0.0   ----- 
Thu 06:30    W 15/ 26  13.7  6.6  1024.0    0.0   0.0   0.0   0.0   ----- 
Thu 07:00    W 13/ 20  13.7  6.1  1024.4    0.0   0.0   0.0   0.0   ----- 
Thu 07:30    W 13/ 24  13.8  5.9  1024.5    0.0   0.0   0.0   0.0   ----- 
Thu 08:00    W 13/ 20  13.8  5.9  1024.7    0.0   0.0   0.0   0.0   ----- 
Thu 08:30    W 15/ 26  14.1  6.0  1024.8    0.0   0.0   0.0   0.0   ----- 
Thu 09:00    W 15/ 30  14.3  5.9  1025.0    0.0   0.0   0.0   0.0   ----- 
Thu 09:30    W 15/ 24  14.6  6.2  1025.0    0.0   0.0   0.0   0.0   ----- 
Thu 10:00   SW 20/ 32  14.8  6.4  1025.3    0.0   0.0   0.0   0.0   ----- 
Thu 10:30    W 17/ 32  14.9  6.2  1025.2    0.0   0.0   0.0   0.0   ----- 
Thu 11:00  WSW 19/ 35  15.7  6.7  1025.1    0.0   0.0   0.0   0.0   ----- 

MOUNT NOWA NOWA

Site: 084144
Alt: 350.0m
32km W of ORBOST


  Time     Wind        Temp  DP   Baro     Rain since   Rain past  Vis(m), Cloud(base in m), Weather
  local        km/h                         9am  last   hr   10m    
Thu 06:00    W  9/ 15  10.3  7.0  ------    0.0   0.0   0.0   0.0   ----- 
Thu 06:30    W  9/ 15  10.2  7.3  ------    0.0   0.0   0.0   0.0   ----- 
Thu 07:00    W  9/ 17  10.2  7.4  ------    0.0   0.0   0.0   0.0   ----- 
Thu 07:30    W  9/ 19  10.2  7.4  ------    0.0   0.0   0.0   0.0   ----- 
Thu 08:00    W  9/ 17  10.2  7.4  ------    0.0   0.0   0.0   0.0   ----- 
Thu 08:30    W  9/ 22  10.4  6.7  ------    0.0   0.0   0.0   0.0   ----- 
Thu 09:00    W  7/ 19  10.5  7.0  ------    0.0   0.0   0.0   0.0   ----- 
Thu 09:30    W  9/ 15  10.8  6.7  ------    0.0   0.0   0.0   0.0   ----- 
Thu 10:00    W  9/ 17  11.4  6.7  ------    0.0   0.0   0.0   0.0   ----- 
Thu 10:30    W  7/ 19  12.0  6.9  ------    0.0   0.0   0.0   0.0   ----- 
Thu 11:00    W 11/ 19  12.2  6.7  ------    0.0   0.0   0.0   0.0   ----- 

ORBOST

Site: 084145
Alt: 62.7m
1km NNE of ORBOST


  Time     Wind        Temp  DP   Baro     Rain since   Rain past  Vis(m), Cloud(base in m), Weather
  local        km/h                         9am  last   hr   10m    
Thu 06:00  WNW  9/ 15  13.0  7.7  1025.7    0.0   0.0   0.0   0.0   ----- 
Thu 06:30   NW  7/ 13  12.9  8.0  1025.9    0.0   0.0   0.0   0.0   ----- 
Thu 07:00  WNW  7/ 13  12.9  8.2  1026.2    0.0   0.0   0.0   0.0   ----- 
Thu 07:30  WNW  9/ 15  12.8  8.3  1026.5    0.0   0.0   0.0   0.0   ----- 
Thu 08:00  WNW  9/ 17  12.9  8.8  1026.7    0.0   0.0   0.0   0.0   ----- 
Thu 08:30  WNW 11/ 15  12.9  9.0  1026.9    0.0   0.0   0.0   0.0   ----- 
Thu 09:00   NW 13/ 22  13.2  8.7  1026.9    0.0   0.0   0.0   0.0   ----- 
Thu 09:30   NW 15/ 24  13.6  7.6  1026.8    0.0   0.0   0.0   0.0   ----- 
Thu 10:00  WNW 15/ 24  14.1  7.2  1026.8    0.0   0.0   0.0   0.0   ----- 
Thu 10:30  WNW 15/ 22  14.4  7.2  1026.9    0.0   0.0   0.0   0.0   ----- 
Thu 11:00  WNW 11/ 19  14.6  7.2  1026.7    0.0   0.0   0.0   0.0   -----